sensor_id;sensor_type;location;lat;lon;timestamp;pressure;altitude;pressure_sealevel;temperature
77789;BMP280;66980;44.384;0.512;2023-04-19T00:00:37;101228.03;;;19.31
77789;BMP280;66980;44.384;0.512;2023-04-19T00:03:04;101235.22;;;19.34
77789;BMP280;66980;44.384;0.512;2023-04-19T00:05:30;101244.78;;;19.33
77789;BMP280;66980;44.384;0.512;2023-04-19T00:07:56;101241.06;;;19.30
77789;BMP280;66980;44.384;0.512;2023-04-19T00:10:21;101233.84;;;19.27
77789;BMP280;66980;44.384;0.512;2023-04-19T00:12:47;101236.59;;;19.27
77789;BMP280;66980;44.384;0.512;2023-04-19T00:15:12;101239.38;;;19.27
77789;BMP280;66980;44.384;0.512;2023-04-19T00:17:38;101235.13;;;19.26
77789;BMP280;66980;44.384;0.512;2023-04-19T00:20:04;101235.69;;;19.25
77789;BMP280;66980;44.384;0.512;2023-04-19T00:22:30;101227.19;;;19.23
77789;BMP280;66980;44.384;0.512;2023-04-19T00:24:56;101236.69;;;19.21
77789;BMP280;66980;44.384;0.512;2023-04-19T00:27:21;101231.19;;;19.21
77789;BMP280;66980;44.384;0.512;2023-04-19T00:29:47;101233.53;;;19.17
77789;BMP280;66980;44.384;0.512;2023-04-19T00:32:12;101240.53;;;19.18
77789;BMP280;66980;44.384;0.512;2023-04-19T00:34:38;101237.16;;;19.12
77789;BMP280;66980;44.384;0.512;2023-04-19T00:37:03;101239.38;;;19.14
77789;BMP280;66980;44.384;0.512;2023-04-19T00:39:29;101238.66;;;19.13
77789;BMP280;66980;44.384;0.512;2023-04-19T00:41:55;101228.88;;;19.12
77789;BMP280;66980;44.384;0.512;2023-04-19T00:44:22;101224.88;;;19.13
77789;BMP280;66980;44.384;0.512;2023-04-19T00:46:48;101222.44;;;19.10
77789;BMP280;66980;44.384;0.512;2023-04-19T00:49:13;101221.72;;;19.09
77789;BMP280;66980;44.384;0.512;2023-04-19T00:51:39;101217.25;;;19.06
77789;BMP280;66980;44.384;0.512;2023-04-19T00:54:05;101222.03;;;19.06
77789;BMP280;66980;44.384;0.512;2023-04-19T00:56:33;101212.81;;;19.03
77789;BMP280;66980;44.384;0.512;2023-04-19T00:58:59;101210.81;;;19.04
77789;BMP280;66980;44.384;0.512;2023-04-19T01:01:25;101209.31;;;19.03
77789;BMP280;66980;44.384;0.512;2023-04-19T01:03:51;101217.56;;;19.03
77789;BMP280;66980;44.384;0.512;2023-04-19T01:06:16;101236.06;;;19.02
77789;BMP280;66980;44.384;0.512;2023-04-19T01:08:42;101219.38;;;19.00
77789;BMP280;66980;44.384;0.512;2023-04-19T01:11:07;101228.16;;;18.99
77789;BMP280;66980;44.384;0.512;2023-04-19T01:13:33;101224.66;;;18.98
77789;BMP280;66980;44.384;0.512;2023-04-19T01:15:59;101225.22;;;18.97
77789;BMP280;66980;44.384;0.512;2023-04-19T01:18:24;101215.47;;;18.95
77789;BMP280;66980;44.384;0.512;2023-04-19T01:20:53;101211.97;;;18.95
77789;BMP280;66980;44.384;0.512;2023-04-19T01:23:19;101216.75;;;18.94
77789;BMP280;66980;44.384;0.512;2023-04-19T01:25:44;101203.50;;;18.93
77789;BMP280;66980;44.384;0.512;2023-04-19T01:28:10;101201.28;;;18.91
77789;BMP280;66980;44.384;0.512;2023-04-19T01:30:36;101199.81;;;18.90
77789;BMP280;66980;44.384;0.512;2023-04-19T01:33:02;101201.28;;;18.91
77789;BMP280;66980;44.384;0.512;2023-04-19T01:35:28;101201.28;;;18.91
77789;BMP280;66980;44.384;0.512;2023-04-19T01:37:53;101196.84;;;18.88
77789;BMP280;66980;44.384;0.512;2023-04-19T01:40:24;101189.63;;;18.85
77789;BMP280;66980;44.384;0.512;2023-04-19T01:42:50;101177.28;;;18.79
77789;BMP280;66980;44.384;0.512;2023-04-19T01:45:15;101178.75;;;18.80
77789;BMP280;66980;44.384;0.512;2023-04-19T01:47:41;101183.94;;;18.83
77789;BMP280;66980;44.384;0.512;2023-04-19T01:50:06;101189.97;;;18.82
77789;BMP280;66980;44.384;0.512;2023-04-19T01:52:32;101182.78;;;18.79
77789;BMP280;66980;44.384;0.512;2023-04-19T01:54:57;101185.72;;;18.81
77789;BMP280;66980;44.384;0.512;2023-04-19T01:57:23;101179.81;;;18.77
77789;BMP280;66980;44.384;0.512;2023-04-19T01:59:48;101175.81;;;18.78
77789;BMP280;66980;44.384;0.512;2023-04-19T02:02:14;101185.31;;;18.77
77789;BMP280;66980;44.384;0.512;2023-04-19T02:04:40;101181.59;;;18.74
77789;BMP280;66980;44.384;0.512;2023-04-19T02:07:05;101187.09;;;18.74
77789;BMP280;66980;44.384;0.512;2023-04-19T02:09:35;101180.88;;;18.74
77789;BMP280;66980;44.384;0.512;2023-04-19T02:12:01;101184.16;;;18.72
77789;BMP280;66980;44.384;0.512;2023-04-19T02:14:26;101185.94;;;18.69
77789;BMP280;66980;44.384;0.512;2023-04-19T02:16:53;101187.22;;;18.68
77789;BMP280;66980;44.384;0.512;2023-04-19T02:19:18;101188.50;;;18.67
77789;BMP280;66980;44.384;0.512;2023-04-19T02:21:44;101192.47;;;18.66
77789;BMP280;66980;44.384;0.512;2023-04-19T02:24:09;101193.97;;;18.67
77789;BMP280;66980;44.384;0.512;2023-04-19T02:26:35;101202.00;;;18.65
77789;BMP280;66980;44.384;0.512;2023-04-19T02:29:00;101197.03;;;18.64
77789;BMP280;66980;44.384;0.512;2023-04-19T02:31:26;101198.84;;;18.61
77789;BMP280;66980;44.384;0.512;2023-04-19T02:33:51;101191.81;;;18.60
77789;BMP280;66980;44.384;0.512;2023-04-19T02:36:16;101199.38;;;18.60
77789;BMP280;66980;44.384;0.512;2023-04-19T02:38:42;101202.13;;;18.60
77789;BMP280;66980;44.384;0.512;2023-04-19T02:41:07;101193.13;;;18.59
77789;BMP280;66980;44.384;0.512;2023-04-19T02:43:33;101197.91;;;18.59
77789;BMP280;66980;44.384;0.512;2023-04-19T02:45:58;101203.91;;;18.57
77789;BMP280;66980;44.384;0.512;2023-04-19T02:48:24;101196.16;;;18.56
77789;BMP280;66980;44.384;0.512;2023-04-19T02:50:49;101184.22;;;18.53
77789;BMP280;66980;44.384;0.512;2023-04-19T02:53:15;101189.50;;;18.51
77789;BMP280;66980;44.384;0.512;2023-04-19T02:55:40;101186.00;;;18.51
77789;BMP280;66980;44.384;0.512;2023-04-19T02:58:05;101191.81;;;18.47
77789;BMP280;66980;44.384;0.512;2023-04-19T03:00:31;101194.56;;;18.47
77789;BMP280;66980;44.384;0.512;2023-04-19T03:02:56;101191.63;;;18.45
77789;BMP280;66980;44.384;0.512;2023-04-19T03:05:22;101195.31;;;18.47
77789;BMP280;66980;44.384;0.512;2023-04-19T03:07:48;101204.81;;;18.46
77789;BMP280;66980;44.384;0.512;2023-04-19T03:10:14;101202.38;;;18.43
77789;BMP280;66980;44.384;0.512;2023-04-19T03:12:39;101207.38;;;18.44
77789;BMP280;66980;44.384;0.512;2023-04-19T03:15:06;101205.88;;;18.43
77789;BMP280;66980;44.384;0.512;2023-04-19T03:17:32;101206.22;;;18.40
77789;BMP280;66980;44.384;0.512;2023-04-19T03:19:57;101205.44;;;18.39
77789;BMP280;66980;44.384;0.512;2023-04-19T03:22:23;101212.22;;;18.38
77789;BMP280;66980;44.384;0.512;2023-04-19T03:24:48;101206.50;;;18.36
77789;BMP280;66980;44.384;0.512;2023-04-19T03:27:14;101201.72;;;18.37
77789;BMP280;66980;44.384;0.512;2023-04-19T03:29:40;101205.78;;;18.36
77789;BMP280;66980;44.384;0.512;2023-04-19T03:32:06;101205.56;;;18.34
77789;BMP280;66980;44.384;0.512;2023-04-19T03:34:31;101206.78;;;18.33
77789;BMP280;66980;44.384;0.512;2023-04-19T03:36:57;101199.31;;;18.33
77789;BMP280;66980;44.384;0.512;2023-04-19T03:39:22;101206.06;;;18.32
77789;BMP280;66980;44.384;0.512;2023-04-19T03:41:48;101204.63;;;18.31
77789;BMP280;66980;44.384;0.512;2023-04-19T03:44:13;101199.19;;;18.26
77789;BMP280;66980;44.384;0.512;2023-04-19T03:46:39;101207.63;;;18.28
77789;BMP280;66980;44.384;0.512;2023-04-19T03:49:04;101200.63;;;18.27
77789;BMP280;66980;44.384;0.512;2023-04-19T03:51:30;101208.88;;;18.27
77789;BMP280;66980;44.384;0.512;2023-04-19T03:53:55;101205.44;;;18.26
77789;BMP280;66980;44.384;0.512;2023-04-19T03:56:21;101207.19;;;18.23
77789;BMP280;66980;44.384;0.512;2023-04-19T03:58:49;101207.19;;;18.23
77789;BMP280;66980;44.384;0.512;2023-04-19T04:01:21;101201.50;;;18.21
77789;BMP280;66980;44.384;0.512;2023-04-19T04:03:48;101204.25;;;18.21
77789;BMP280;66980;44.384;0.512;2023-04-19T04:06:14;101208.25;;;18.20
77789;BMP280;66980;44.384;0.512;2023-04-19T04:08:39;101206.03;;;18.19
77789;BMP280;66980;44.384;0.512;2023-04-19T04:11:05;101209.28;;;18.17
77789;BMP280;66980;44.384;0.512;2023-04-19T04:13:30;101212.03;;;18.17
77789;BMP280;66980;44.384;0.512;2023-04-19T04:15:55;101215.31;;;18.16
77789;BMP280;66980;44.384;0.512;2023-04-19T04:18:21;101216.34;;;18.13
77789;BMP280;66980;44.384;0.512;2023-04-19T04:20:47;101213.59;;;18.13
77789;BMP280;66980;44.384;0.512;2023-04-19T04:23:13;101215.41;;;18.10
77789;BMP280;66980;44.384;0.512;2023-04-19T04:25:38;101212.13;;;18.12
77789;BMP280;66980;44.384;0.512;2023-04-19T04:28:04;101217.41;;;18.10
77789;BMP280;66980;44.384;0.512;2023-04-19T04:30:31;101212.53;;;18.03
77789;BMP280;66980;44.384;0.512;2023-04-19T04:32:56;101214.75;;;18.04
77789;BMP280;66980;44.384;0.512;2023-04-19T04:35:25;101223.97;;;18.07
77789;BMP280;66980;44.384;0.512;2023-04-19T04:37:51;101230.19;;;18.07
77789;BMP280;66980;44.384;0.512;2023-04-19T04:40:20;101232.72;;;18.05
77789;BMP280;66980;44.384;0.512;2023-04-19T04:42:45;101228.47;;;18.04
77789;BMP280;66980;44.384;0.512;2023-04-19T04:45:11;101235.47;;;18.05
77789;BMP280;66980;44.384;0.512;2023-04-19T04:47:37;101226.53;;;17.99
77789;BMP280;66980;44.384;0.512;2023-04-19T04:50:03;101244.19;;;18.04
77789;BMP280;66980;44.384;0.512;2023-04-19T04:52:28;101247.50;;;18.02
77789;BMP280;66980;44.384;0.512;2023-04-19T04:54:54;101246.00;;;18.01
77789;BMP280;66980;44.384;0.512;2023-04-19T04:57:20;101248.50;;;17.99
77789;BMP280;66980;44.384;0.512;2023-04-19T04:59:45;101257.53;;;18.00
77789;BMP280;66980;44.384;0.512;2023-04-19T05:02:13;101246.09;;;17.95
77789;BMP280;66980;44.384;0.512;2023-04-19T05:04:39;101247.84;;;17.93
77789;BMP280;66980;44.384;0.512;2023-04-19T05:07:04;101260.06;;;17.97
77789;BMP280;66980;44.384;0.512;2023-04-19T05:09:30;101256.06;;;17.93
77789;BMP280;66980;44.384;0.512;2023-04-19T05:11:55;101254.63;;;17.92
77789;BMP280;66980;44.384;0.512;2023-04-19T05:14:21;101262.63;;;17.90
77789;BMP280;66980;44.384;0.512;2023-04-19T05:16:46;101268.56;;;17.94
77789;BMP280;66980;44.384;0.512;2023-04-19T05:19:12;101256.41;;;17.89
77789;BMP280;66980;44.384;0.512;2023-04-19T05:21:37;101265.63;;;17.92
77789;BMP280;66980;44.384;0.512;2023-04-19T05:24:03;101264.31;;;17.93
77789;BMP280;66980;44.384;0.512;2023-04-19T05:26:29;101261.13;;;17.89
77789;BMP280;66980;44.384;0.512;2023-04-19T05:28:54;101267.38;;;17.89
77789;BMP280;66980;44.384;0.512;2023-04-19T05:31:20;101263.88;;;17.89
77789;BMP280;66980;44.384;0.512;2023-04-19T05:33:46;101265.16;;;17.88
77789;BMP280;66980;44.384;0.512;2023-04-19T05:36:12;101263.25;;;17.83
77789;BMP280;66980;44.384;0.512;2023-04-19T05:38:37;101260.50;;;17.83
77789;BMP280;66980;44.384;0.512;2023-04-19T05:41:03;101252.03;;;17.81
77789;BMP280;66980;44.384;0.512;2023-04-19T05:43:28;101248.75;;;17.82
77789;BMP280;66980;44.384;0.512;2023-04-19T05:45:54;101253.72;;;17.84
77789;BMP280;66980;44.384;0.512;2023-04-19T05:48:19;101259.94;;;17.84
77789;BMP280;66980;44.384;0.512;2023-04-19T05:50:44;101263.13;;;17.88
77789;BMP280;66980;44.384;0.512;2023-04-19T05:53:10;101255.97;;;17.85
77789;BMP280;66980;44.384;0.512;2023-04-19T05:55:36;101251.94;;;17.86
77789;BMP280;66980;44.384;0.512;2023-04-19T05:58:01;101254.91;;;17.88
77789;BMP280;66980;44.384;0.512;2023-04-19T06:00:27;101246.38;;;17.92
77789;BMP280;66980;44.384;0.512;2023-04-19T06:02:52;101255.63;;;17.89
77789;BMP280;66980;44.384;0.512;2023-04-19T06:05:18;101260.19;;;17.86
77789;BMP280;66980;44.384;0.512;2023-04-19T06:07:44;101262.41;;;17.88
77789;BMP280;66980;44.384;0.512;2023-04-19T06:10:10;101257.19;;;17.84
77789;BMP280;66980;44.384;0.512;2023-04-19T06:12:35;101272.00;;;17.81
77789;BMP280;66980;44.384;0.512;2023-04-19T06:15:01;101263.97;;;17.83
77789;BMP280;66980;44.384;0.512;2023-04-19T06:17:26;101262.50;;;17.82
77789;BMP280;66980;44.384;0.512;2023-04-19T06:19:52;101257.75;;;17.83
77789;BMP280;66980;44.384;0.512;2023-04-19T06:22:18;101254.47;;;17.84
77789;BMP280;66980;44.384;0.512;2023-04-19T06:24:45;101255.72;;;17.83
77789;BMP280;66980;44.384;0.512;2023-04-19T06:27:11;101260.69;;;17.85
77789;BMP280;66980;44.384;0.512;2023-04-19T06:29:36;101253.56;;;17.76
77789;BMP280;66980;44.384;0.512;2023-04-19T06:32:02;101265.53;;;17.79
77789;BMP280;66980;44.384;0.512;2023-04-19T06:34:27;101261.31;;;17.78
77789;BMP280;66980;44.384;0.512;2023-04-19T06:36:53;101250.09;;;17.76
77789;BMP280;66980;44.384;0.512;2023-04-19T06:39:18;101256.25;;;17.82
77789;BMP280;66980;44.384;0.512;2023-04-19T06:41:44;101265.75;;;17.81
77789;BMP280;66980;44.384;0.512;2023-04-19T06:44:09;101260.34;;;17.75
77789;BMP280;66980;44.384;0.512;2023-04-19T06:46:35;101259.75;;;17.39
77789;BMP280;66980;44.384;0.512;2023-04-19T06:49:01;101259.81;;;17.33
77789;BMP280;66980;44.384;0.512;2023-04-19T06:51:27;101253.72;;;17.21
77789;BMP280;66980;44.384;0.512;2023-04-19T06:53:52;101250.09;;;17.08
77789;BMP280;66980;44.384;0.512;2023-04-19T06:56:38;101244.06;;;16.90
77789;BMP280;66980;44.384;0.512;2023-04-19T06:59:03;101250.03;;;16.89
77789;BMP280;66980;44.384;0.512;2023-04-19T07:01:29;101257.53;;;16.88
77789;BMP280;66980;44.384;0.512;2023-04-19T07:03:54;101245.84;;;16.82
77789;BMP280;66980;44.384;0.512;2023-04-19T07:06:20;101251.63;;;16.78
77789;BMP280;66980;44.384;0.512;2023-04-19T07:08:45;101258.38;;;16.77
77789;BMP280;66980;44.384;0.512;2023-04-19T07:11:11;101255.16;;;16.73
77789;BMP280;66980;44.384;0.512;2023-04-19T07:13:36;101250.22;;;16.66
77789;BMP280;66980;44.384;0.512;2023-04-19T07:16:05;101248.97;;;16.67
77789;BMP280;66980;44.384;0.512;2023-04-19T07:18:31;101250.91;;;16.72
77789;BMP280;66980;44.384;0.512;2023-04-19T07:20:57;101241.25;;;16.71
77789;BMP280;66980;44.384;0.512;2023-04-19T07:23:22;101253.44;;;16.70
77789;BMP280;66980;44.384;0.512;2023-04-19T07:25:47;101242.47;;;16.70
77789;BMP280;66980;44.384;0.512;2023-04-19T07:28:13;101251.16;;;16.74
77789;BMP280;66980;44.384;0.512;2023-04-19T07:30:40;101245.75;;;16.69
77789;BMP280;66980;44.384;0.512;2023-04-19T07:33:06;101249.22;;;16.69
77789;BMP280;66980;44.384;0.512;2023-04-19T07:35:33;101252.25;;;16.66
77789;BMP280;66980;44.384;0.512;2023-04-19T07:37:59;101246.03;;;16.65
77789;BMP280;66980;44.384;0.512;2023-04-19T07:40:25;101235.09;;;16.60
77789;BMP280;66980;44.384;0.512;2023-04-19T07:42:50;101247.25;;;16.64
77789;BMP280;66980;44.384;0.512;2023-04-19T07:45:16;101244.97;;;16.68
77789;BMP280;66980;44.384;0.512;2023-04-19T07:47:41;101236.75;;;16.68
77789;BMP280;66980;44.384;0.512;2023-04-19T07:50:07;101252.72;;;16.70
77789;BMP280;66980;44.384;0.512;2023-04-19T07:52:33;101255.16;;;16.73
77789;BMP280;66980;44.384;0.512;2023-04-19T07:54:58;101247.97;;;16.70
77789;BMP280;66980;44.384;0.512;2023-04-19T07:57:24;101253.66;;;16.72
77789;BMP280;66980;44.384;0.512;2023-04-19T07:59:49;101244.44;;;16.75
77789;BMP280;66980;44.384;0.512;2023-04-19T08:02:15;101245.94;;;16.76
77789;BMP280;66980;44.384;0.512;2023-04-19T08:04:43;101241.91;;;16.77
77789;BMP280;66980;44.384;0.512;2023-04-19T08:07:10;101249.13;;;16.81
77789;BMP280;66980;44.384;0.512;2023-04-19T08:09:36;101254.31;;;16.84
77789;BMP280;66980;44.384;0.512;2023-04-19T08:12:02;101254.81;;;16.83
77789;BMP280;66980;44.384;0.512;2023-04-19T08:14:27;101254.56;;;16.86
77789;BMP280;66980;44.384;0.512;2023-04-19T08:16:53;101252.91;;;16.72
77789;BMP280;66980;44.384;0.512;2023-04-19T08:19:18;101248.75;;;16.65
77789;BMP280;66980;44.384;0.512;2023-04-19T08:21:43;101252.72;;;16.70
77789;BMP280;66980;44.384;0.512;2023-04-19T08:24:09;101245.75;;;16.69
77789;BMP280;66980;44.384;0.512;2023-04-19T08:26:34;101247.88;;;16.82
77789;BMP280;66980;44.384;0.512;2023-04-19T08:29:00;101257.53;;;16.88
77789;BMP280;66980;44.384;0.512;2023-04-19T08:31:25;101249.19;;;16.99
77789;BMP280;66980;44.384;0.512;2023-04-19T08:33:51;101244.41;;;17.06
77789;BMP280;66980;44.384;0.512;2023-04-19T08:36:16;101246.66;;;17.07
77789;BMP280;66980;44.384;0.512;2023-04-19T08:38:42;101245.78;;;17.18
77789;BMP280;66980;44.384;0.512;2023-04-19T08:41:10;101241.72;;;17.24
77789;BMP280;66980;44.384;0.512;2023-04-19T08:43:36;101235.97;;;17.28
77789;BMP280;66980;44.384;0.512;2023-04-19T08:46:03;101248.56;;;17.37
77789;BMP280;66980;44.384;0.512;2023-04-19T08:48:30;101246.78;;;17.39
77789;BMP280;66980;44.384;0.512;2023-04-19T08:50:59;101248.50;;;17.42
77789;BMP280;66980;44.384;0.512;2023-04-19T08:53:27;101250.44;;;17.47
77789;BMP280;66980;44.384;0.512;2023-04-19T08:55:54;101246.88;;;17.53
77789;BMP280;66980;44.384;0.512;2023-04-19T08:58:23;101248.59;;;17.56
77789;BMP280;66980;44.384;0.512;2023-04-19T09:00:50;101238.56;;;17.58
77789;BMP280;66980;44.384;0.512;2023-04-19T09:03:15;101237.53;;;17.61
77789;BMP280;66980;44.384;0.512;2023-04-19T09:05:40;101241.25;;;17.64
77789;BMP280;66980;44.384;0.512;2023-04-19T09:08:29;101240.44;;;17.69
77789;BMP280;66980;44.384;0.512;2023-04-19T09:10:59;101229.19;;;17.72
77789;BMP280;66980;44.384;0.512;2023-04-19T09:13:26;101236.38;;;17.76
77789;BMP280;66980;44.384;0.512;2023-04-19T09:15:52;101235.84;;;17.77
77789;BMP280;66980;44.384;0.512;2023-04-19T09:18:18;101235.84;;;17.77
77789;BMP280;66980;44.384;0.512;2023-04-19T09:20:44;101229.00;;;17.84
77789;BMP280;66980;44.384;0.512;2023-04-19T09:23:12;101230.47;;;17.85
77789;BMP280;66980;44.384;0.512;2023-04-19T09:25:39;101230.72;;;17.87
77789;BMP280;66980;44.384;0.512;2023-04-19T09:28:12;101235.91;;;17.90
77789;BMP280;66980;44.384;0.512;2023-04-19T09:30:38;101230.66;;;17.92
77789;BMP280;66980;44.384;0.512;2023-04-19T09:33:04;101235.09;;;17.95
77789;BMP280;66980;44.384;0.512;2023-04-19T09:35:43;101229.28;;;17.99
77789;BMP280;66980;44.384;0.512;2023-04-19T09:38:10;101215.06;;;18.01
77789;BMP280;66980;44.384;0.512;2023-04-19T09:40:37;101229.72;;;18.03
77789;BMP280;66980;44.384;0.512;2023-04-19T09:43:03;101224.69;;;18.07
77789;BMP280;66980;44.384;0.512;2023-04-19T09:45:41;101222.38;;;18.11
77789;BMP280;66980;44.384;0.512;2023-04-19T09:48:07;101220.38;;;18.12
77789;BMP280;66980;44.384;0.512;2023-04-19T09:50:33;101220.81;;;18.16
77789;BMP280;66980;44.384;0.512;2023-04-19T09:52:59;101217.03;;;18.19
77789;BMP280;66980;44.384;0.512;2023-04-19T09:55:25;101214.72;;;18.23
77789;BMP280;66980;44.384;0.512;2023-04-19T09:57:52;101210.19;;;18.26
77789;BMP280;66980;44.384;0.512;2023-04-19T10:00:18;101217.88;;;18.27
77789;BMP280;66980;44.384;0.512;2023-04-19T10:02:46;101206.38;;;18.29
77789;BMP280;66980;44.384;0.512;2023-04-19T10:05:19;101209.53;;;18.33
77789;BMP280;66980;44.384;0.512;2023-04-19T10:07:45;101207.97;;;18.37
77789;BMP280;66980;44.384;0.512;2023-04-19T10:10:14;101209.69;;;18.40
77789;BMP280;66980;44.384;0.512;2023-04-19T10:12:41;101201.34;;;18.46
77789;BMP280;66980;44.384;0.512;2023-04-19T10:15:08;101206.63;;;18.44
77789;BMP280;66980;44.384;0.512;2023-04-19T10:17:35;101199.34;;;18.46
77789;BMP280;66980;44.384;0.512;2023-04-19T10:20:06;101200.81;;;18.47
77789;BMP280;66980;44.384;0.512;2023-04-19T10:22:36;101192.06;;;18.49
77789;BMP280;66980;44.384;0.512;2023-04-19T10:25:15;101194.16;;;18.56
77789;BMP280;66980;44.384;0.512;2023-04-19T10:27:43;101188.88;;;18.58
77789;BMP280;66980;44.384;0.512;2023-04-19T10:30:36;101193.34;;;18.61
77789;BMP280;66980;44.384;0.512;2023-04-19T10:33:26;101193.03;;;18.65
77789;BMP280;66980;44.384;0.512;2023-04-19T10:35:55;101184.47;;;18.68
77789;BMP280;66980;44.384;0.512;2023-04-19T10:38:38;101184.88;;;18.73
77789;BMP280;66980;44.384;0.512;2023-04-19T10:41:04;101174.31;;;18.77
77789;BMP280;66980;44.384;0.512;2023-04-19T10:43:36;101173.25;;;18.80
77789;BMP280;66980;44.384;0.512;2023-04-19T10:46:07;101172.19;;;18.83
77789;BMP280;66980;44.384;0.512;2023-04-19T10:48:35;101166.38;;;18.86
77789;BMP280;66980;44.384;0.512;2023-04-19T10:51:15;101169.44;;;18.96
77789;BMP280;66980;44.384;0.512;2023-04-19T10:53:57;101162.00;;;19.04
77789;BMP280;66980;44.384;0.512;2023-04-19T11:01:44;101161.06;;;19.15
77789;BMP280;66980;44.384;0.512;2023-04-19T11:04:20;101152.06;;;19.14
77789;BMP280;66980;44.384;0.512;2023-04-19T11:09:27;101152.88;;;19.23
77789;BMP280;66980;44.384;0.512;2023-04-19T11:11:57;101143.78;;;19.28
77789;BMP280;66980;44.384;0.512;2023-04-19T11:14:24;101141.41;;;19.45
77789;BMP280;66980;44.384;0.512;2023-04-19T11:16:49;101134.22;;;19.42
77789;BMP280;66980;44.384;0.512;2023-04-19T11:19:18;101128.28;;;19.38
77789;BMP280;66980;44.384;0.512;2023-04-19T11:21:45;101133.16;;;19.45
77789;BMP280;66980;44.384;0.512;2023-04-19T11:24:11;101125.09;;;19.47
77789;BMP280;66980;44.384;0.512;2023-04-19T11:26:37;101124.00;;;19.50
77789;BMP280;66980;44.384;0.512;2023-04-19T11:29:02;101115.75;;;19.50
77789;BMP280;66980;44.384;0.512;2023-04-19T11:31:33;101118.44;;;19.63
77789;BMP280;66980;44.384;0.512;2023-04-19T11:33:58;101112.59;;;19.67
77789;BMP280;66980;44.384;0.512;2023-04-19T11:36:26;101113.34;;;19.67
77789;BMP280;66980;44.384;0.512;2023-04-19T11:38:52;101106.75;;;19.70
77789;BMP280;66980;44.384;0.512;2023-04-19T11:41:18;101097.63;;;19.76
77789;BMP280;66980;44.384;0.512;2023-04-19T11:43:43;101100.78;;;19.80
77789;BMP280;66980;44.384;0.512;2023-04-19T11:46:13;101096.06;;;19.88
77789;BMP280;66980;44.384;0.512;2023-04-19T11:48:49;101105.66;;;19.94
77789;BMP280;66980;44.384;0.512;2023-04-19T11:51:15;101100.16;;;19.94
77789;BMP280;66980;44.384;0.512;2023-04-19T11:53:41;101095.56;;;19.97
77789;BMP280;66980;44.384;0.512;2023-04-19T11:56:07;101091.41;;;20.04
77789;BMP280;66980;44.384;0.512;2023-04-19T11:58:40;101084.28;;;20.08
77789;BMP280;66980;44.384;0.512;2023-04-19T12:01:11;101082.66;;;20.13
77789;BMP280;66980;44.384;0.512;2023-04-19T12:06:16;101085.63;;;20.23
77789;BMP280;66980;44.384;0.512;2023-04-19T12:08:44;101079.25;;;20.28
77789;BMP280;66980;44.384;0.512;2023-04-19T12:11:11;101078.72;;;20.29
77789;BMP280;66980;44.384;0.512;2023-04-19T12:13:36;101075.25;;;20.36
77789;BMP280;66980;44.384;0.512;2023-04-19T12:16:02;101069.03;;;20.43
77789;BMP280;66980;44.384;0.512;2023-04-19T12:18:41;101071.47;;;20.47
77789;BMP280;66980;44.384;0.512;2023-04-19T12:21:09;101079.56;;;20.53
77789;BMP280;66980;44.384;0.512;2023-04-19T12:23:35;101076.84;;;20.60
77789;BMP280;66980;44.384;0.512;2023-04-19T12:26:03;101070.25;;;20.63
77789;BMP280;66980;44.384;0.512;2023-04-19T12:28:29;101067.31;;;20.69
77789;BMP280;66980;44.384;0.512;2023-04-19T12:30:55;101068.47;;;20.74
77789;BMP280;66980;44.384;0.512;2023-04-19T12:33:21;101064.03;;;20.78
77789;BMP280;66980;44.384;0.512;2023-04-19T12:35:46;101064.41;;;20.82
77789;BMP280;66980;44.384;0.512;2023-04-19T12:38:11;101065.72;;;20.89
77789;BMP280;66980;44.384;0.512;2023-04-19T12:40:37;101059.84;;;20.92
77789;BMP280;66980;44.384;0.512;2023-04-19T12:43:05;101056.91;;;20.98
77789;BMP280;66980;44.384;0.512;2023-04-19T12:45:31;101054.53;;;21.02
77789;BMP280;66980;44.384;0.512;2023-04-19T12:47:57;101048.84;;;21.08
77789;BMP280;66980;44.384;0.512;2023-04-19T12:50:22;101053.44;;;21.13
77789;BMP280;66980;44.384;0.512;2023-04-19T12:52:48;101049.03;;;21.17
77789;BMP280;66980;44.384;0.512;2023-04-19T12:55:15;101048.13;;;21.23
77789;BMP280;66980;44.384;0.512;2023-04-19T12:57:41;101049.41;;;21.29
77789;BMP280;66980;44.384;0.512;2023-04-19T13:00:08;101048.50;;;21.34
77789;BMP280;66980;44.384;0.512;2023-04-19T13:02:34;101050.38;;;21.39
77789;BMP280;66980;44.384;0.512;2023-04-19T13:05:00;101044.63;;;21.45
77789;BMP280;66980;44.384;0.512;2023-04-19T13:07:25;101052.75;;;21.51
77789;BMP280;66980;44.384;0.512;2023-04-19T13:09:52;101042.78;;;21.55
77789;BMP280;66980;44.384;0.512;2023-04-19T13:12:18;101040.41;;;21.59
77789;BMP280;66980;44.384;0.512;2023-04-19T13:14:44;101043.69;;;21.65
77789;BMP280;66980;44.384;0.512;2023-04-19T13:17:12;101030.25;;;21.69
77789;BMP280;66980;44.384;0.512;2023-04-19T13:19:37;101028.06;;;21.76
77789;BMP280;66980;44.384;0.512;2023-04-19T13:22:03;101029.16;;;21.80
77789;BMP280;66980;44.384;0.512;2023-04-19T13:24:28;101031.72;;;21.86
77789;BMP280;66980;44.384;0.512;2023-04-19T13:26:54;101018.97;;;21.90
77789;BMP280;66980;44.384;0.512;2023-04-19T13:29:19;101026.34;;;21.95
77789;BMP280;66980;44.384;0.512;2023-04-19T13:31:45;101026.13;;;22.01
77789;BMP280;66980;44.384;0.512;2023-04-19T13:34:11;101016.91;;;22.06
77789;BMP280;66980;44.384;0.512;2023-04-19T13:36:36;101018.00;;;22.11
77789;BMP280;66980;44.384;0.512;2023-04-19T13:39:02;101016.50;;;22.17
77789;BMP280;66980;44.384;0.512;2023-04-19T13:41:28;101015.56;;;22.23
77789;BMP280;66980;44.384;0.512;2023-04-19T13:43:53;101012.03;;;22.30
77789;BMP280;66980;44.384;0.512;2023-04-19T13:46:19;101011.09;;;22.35
77789;BMP280;66980;44.384;0.512;2023-04-19T13:48:44;101000.38;;;22.39
77789;BMP280;66980;44.384;0.512;2023-04-19T13:51:11;101005.69;;;22.44
77789;BMP280;66980;44.384;0.512;2023-04-19T13:53:36;100991.44;;;22.48
77789;BMP280;66980;44.384;0.512;2023-04-19T13:56:02;100994.91;;;22.56
77789;BMP280;66980;44.384;0.512;2023-04-19T13:58:28;100995.44;;;22.62
77789;BMP280;66980;44.384;0.512;2023-04-19T14:00:53;100991.00;;;22.67
77789;BMP280;66980;44.384;0.512;2023-04-19T14:03:21;100991.84;;;22.77